sensor_id;sensor_type;location;lat;lon;timestamp;P1;durP1;ratioP1;P2;durP2;ratioP2
18780;SDS011;9519;51.890;8.970;2022-07-09T00:03:14;9.48;;;3.83;;
18780;SDS011;9519;51.890;8.970;2022-07-09T00:08:18;9.57;;;3.55;;
18780;SDS011;9519;51.890;8.970;2022-07-09T00:13:20;7.97;;;3.75;;
18780;SDS011;9519;51.890;8.970;2022-07-09T00:18:22;9.55;;;3.92;;
18780;SDS011;9519;51.890;8.970;2022-07-09T00:23:25;6.78;;;3.67;;
18780;SDS011;9519;51.890;8.970;2022-07-09T00:28:28;9.15;;;3.83;;
18780;SDS011;9519;51.890;8.970;2022-07-09T00:33:31;9.23;;;4.00;;
18780;SDS011;9519;51.890;8.970;2022-07-09T00:38:35;10.80;;;4.25;;
18780;SDS011;9519;51.890;8.970;2022-07-09T00:43:37;8.65;;;4.18;;
18780;SDS011;9519;51.890;8.970;2022-07-09T00:48:48;7.82;;;4.07;;
18780;SDS011;9519;51.890;8.970;2022-07-09T00:53:51;7.05;;;4.10;;
18780;SDS011;9519;51.890;8.970;2022-07-09T00:58:54;7.70;;;3.78;;
18780;SDS011;9519;51.890;8.970;2022-07-09T01:03:57;9.10;;;4.25;;
18780;SDS011;9519;51.890;8.970;2022-07-09T01:09:01;8.55;;;4.05;;
18780;SDS011;9519;51.890;8.970;2022-07-09T01:14:04;7.32;;;3.97;;
18780;SDS011;9519;51.890;8.970;2022-07-09T01:19:06;11.68;;;4.30;;
18780;SDS011;9519;51.890;8.970;2022-07-09T01:24:10;9.77;;;4.90;;
18780;SDS011;9519;51.890;8.970;2022-07-09T01:29:12;10.90;;;4.57;;
18780;SDS011;9519;51.890;8.970;2022-07-09T01:34:14;10.02;;;4.57;;
18780;SDS011;9519;51.890;8.970;2022-07-09T01:39:18;12.35;;;4.65;;
18780;SDS011;9519;51.890;8.970;2022-07-09T01:44:20;12.32;;;5.15;;
18780;SDS011;9519;51.890;8.970;2022-07-09T01:49:22;9.57;;;4.85;;
18780;SDS011;9519;51.890;8.970;2022-07-09T01:54:25;11.63;;;5.82;;
18780;SDS011;9519;51.890;8.970;2022-07-09T01:59:27;9.30;;;4.78;;
18780;SDS011;9519;51.890;8.970;2022-07-09T02:04:29;6.32;;;4.63;;
18780;SDS011;9519;51.890;8.970;2022-07-09T02:09:33;11.30;;;5.18;;
18780;SDS011;9519;51.890;8.970;2022-07-09T02:14:35;11.25;;;4.63;;
18780;SDS011;9519;51.890;8.970;2022-07-09T02:19:37;9.50;;;4.93;;
18780;SDS011;9519;51.890;8.970;2022-07-09T02:24:40;11.20;;;6.10;;
18780;SDS011;9519;51.890;8.970;2022-07-09T02:29:42;11.77;;;7.07;;
18780;SDS011;9519;51.890;8.970;2022-07-09T02:34:44;16.52;;;8.30;;
18780;SDS011;9519;51.890;8.970;2022-07-09T02:39:48;17.13;;;8.95;;
18780;SDS011;9519;51.890;8.970;2022-07-09T02:44:50;14.63;;;9.13;;
18780;SDS011;9519;51.890;8.970;2022-07-09T02:49:52;12.85;;;7.85;;
18780;SDS011;9519;51.890;8.970;2022-07-09T02:54:56;12.73;;;8.07;;
18780;SDS011;9519;51.890;8.970;2022-07-09T02:59:58;17.90;;;10.90;;
18780;SDS011;9519;51.890;8.970;2022-07-09T03:05:00;21.83;;;14.10;;
18780;SDS011;9519;51.890;8.970;2022-07-09T03:10:04;22.35;;;15.45;;
18780;SDS011;9519;51.890;8.970;2022-07-09T03:15:07;33.20;;;19.10;;
18780;SDS011;9519;51.890;8.970;2022-07-09T03:20:13;32.35;;;22.52;;
18780;SDS011;9519;51.890;8.970;2022-07-09T03:25:17;31.88;;;21.83;;
18780;SDS011;9519;51.890;8.970;2022-07-09T03:30:19;33.80;;;23.40;;
18780;SDS011;9519;51.890;8.970;2022-07-09T03:35:21;37.28;;;24.13;;
18780;SDS011;9519;51.890;8.970;2022-07-09T03:40:24;29.65;;;24.00;;
18780;SDS011;9519;51.890;8.970;2022-07-09T03:45:27;38.72;;;26.23;;
18780;SDS011;9519;51.890;8.970;2022-07-09T03:50:31;32.88;;;25.52;;
18780;SDS011;9519;51.890;8.970;2022-07-09T03:55:35;29.52;;;23.85;;
18780;SDS011;9519;51.890;8.970;2022-07-09T04:00:37;30.90;;;22.67;;
18780;SDS011;9519;51.890;8.970;2022-07-09T04:05:39;26.52;;;21.45;;
18780;SDS011;9519;51.890;8.970;2022-07-09T04:10:45;28.60;;;20.92;;
18780;SDS011;9519;51.890;8.970;2022-07-09T04:15:47;33.72;;;22.75;;
18780;SDS011;9519;51.890;8.970;2022-07-09T04:20:51;35.55;;;22.90;;
18780;SDS011;9519;51.890;8.970;2022-07-09T04:25:56;33.60;;;23.63;;
18780;SDS011;9519;51.890;8.970;2022-07-09T04:30:58;36.58;;;24.77;;
18780;SDS011;9519;51.890;8.970;2022-07-09T04:36:00;31.80;;;23.10;;
18780;SDS011;9519;51.890;8.970;2022-07-09T04:41:03;36.40;;;25.70;;
18780;SDS011;9519;51.890;8.970;2022-07-09T04:46:06;39.75;;;25.30;;
18780;SDS011;9519;51.890;8.970;2022-07-09T04:51:08;33.30;;;22.23;;
18780;SDS011;9519;51.890;8.970;2022-07-09T04:56:12;34.53;;;22.52;;
18780;SDS011;9519;51.890;8.970;2022-07-09T05:01:14;26.70;;;20.30;;
18780;SDS011;9519;51.890;8.970;2022-07-09T05:06:17;31.30;;;20.65;;
18780;SDS011;9519;51.890;8.970;2022-07-09T05:11:21;20.95;;;17.02;;
18780;SDS011;9519;51.890;8.970;2022-07-09T05:16:23;25.17;;;16.85;;
18780;SDS011;9519;51.890;8.970;2022-07-09T05:21:25;20.88;;;16.67;;
18780;SDS011;9519;51.890;8.970;2022-07-09T05:26:29;21.10;;;15.20;;
18780;SDS011;9519;51.890;8.970;2022-07-09T05:31:31;20.98;;;15.77;;
18780;SDS011;9519;51.890;8.970;2022-07-09T05:36:33;19.27;;;15.70;;
18780;SDS011;9519;51.890;8.970;2022-07-09T05:41:37;20.17;;;15.95;;
18780;SDS011;9519;51.890;8.970;2022-07-09T05:46:40;20.27;;;15.30;;
18780;SDS011;9519;51.890;8.970;2022-07-09T05:51:42;22.13;;;16.08;;
18780;SDS011;9519;51.890;8.970;2022-07-09T05:56:46;19.02;;;15.23;;
18780;SDS011;9519;51.890;8.970;2022-07-09T06:01:48;22.30;;;15.52;;
18780;SDS011;9519;51.890;8.970;2022-07-09T06:06:50;19.08;;;15.38;;
18780;SDS011;9519;51.890;8.970;2022-07-09T06:11:53;17.33;;;14.10;;
18780;SDS011;9519;51.890;8.970;2022-07-09T06:16:55;19.45;;;12.73;;
18780;SDS011;9519;51.890;8.970;2022-07-09T06:21:59;18.10;;;12.10;;
18780;SDS011;9519;51.890;8.970;2022-07-09T06:27:03;14.77;;;11.27;;
18780;SDS011;9519;51.890;8.970;2022-07-09T06:32:06;23.35;;;12.27;;
18780;SDS011;9519;51.890;8.970;2022-07-09T06:37:09;13.50;;;10.45;;
18780;SDS011;9519;51.890;8.970;2022-07-09T06:42:13;16.45;;;10.27;;
18780;SDS011;9519;51.890;8.970;2022-07-09T06:47:17;16.45;;;9.70;;
18780;SDS011;9519;51.890;8.970;2022-07-09T06:52:19;14.40;;;9.93;;
18780;SDS011;9519;51.890;8.970;2022-07-09T06:57:23;14.23;;;9.70;;
18780;SDS011;9519;51.890;8.970;2022-07-09T07:02:26;10.90;;;8.43;;
18780;SDS011;9519;51.890;8.970;2022-07-09T07:07:28;14.75;;;8.40;;
18780;SDS011;9519;51.890;8.970;2022-07-09T07:12:31;11.40;;;7.53;;
18780;SDS011;9519;51.890;8.970;2022-07-09T07:17:36;12.27;;;6.82;;
18780;SDS011;9519;51.890;8.970;2022-07-09T07:22:38;9.68;;;5.47;;
18780;SDS011;9519;51.890;8.970;2022-07-09T07:27:41;9.35;;;5.18;;
18780;SDS011;9519;51.890;8.970;2022-07-09T07:32:43;9.57;;;5.82;;
18780;SDS011;9519;51.890;8.970;2022-07-09T07:37:45;11.57;;;6.25;;
18780;SDS011;9519;51.890;8.970;2022-07-09T07:42:49;10.38;;;4.88;;
18780;SDS011;9519;51.890;8.970;2022-07-09T07:47:53;6.53;;;4.57;;
18780;SDS011;9519;51.890;8.970;2022-07-09T07:52:56;8.00;;;4.28;;
18780;SDS011;9519;51.890;8.970;2022-07-09T07:58:00;7.15;;;3.42;;
18780;SDS011;9519;51.890;8.970;2022-07-09T08:03:03;4.93;;;3.33;;
18780;SDS011;9519;51.890;8.970;2022-07-09T08:08:05;6.30;;;2.95;;
18780;SDS011;9519;51.890;8.970;2022-07-09T08:13:12;7.13;;;2.80;;
18780;SDS011;9519;51.890;8.970;2022-07-09T08:18:14;7.50;;;2.75;;
18780;SDS011;9519;51.890;8.970;2022-07-09T08:23:16;7.15;;;3.30;;
18780;SDS011;9519;51.890;8.970;2022-07-09T08:28:19;5.55;;;2.40;;
18780;SDS011;9519;51.890;8.970;2022-07-09T08:33:23;8.15;;;2.70;;
18780;SDS011;9519;51.890;8.970;2022-07-09T08:38:25;4.70;;;2.75;;
18780;SDS011;9519;51.890;8.970;2022-07-09T08:43:30;7.05;;;2.58;;
18780;SDS011;9519;51.890;8.970;2022-07-09T08:48:35;5.88;;;2.70;;
18780;SDS011;9519;51.890;8.970;2022-07-09T08:53:39;6.53;;;2.00;;
18780;SDS011;9519;51.890;8.970;2022-07-09T08:58:44;3.97;;;1.90;;
18780;SDS011;9519;51.890;8.970;2022-07-09T09:03:47;4.22;;;2.25;;
18780;SDS011;9519;51.890;8.970;2022-07-09T09:08:52;4.60;;;1.70;;
18780;SDS011;9519;51.890;8.970;2022-07-09T09:13:57;4.82;;;2.10;;
18780;SDS011;9519;51.890;8.970;2022-07-09T09:18:59;4.53;;;1.92;;
18780;SDS011;9519;51.890;8.970;2022-07-09T09:24:03;6.07;;;2.08;;
18780;SDS011;9519;51.890;8.970;2022-07-09T09:29:07;5.88;;;2.13;;
18780;SDS011;9519;51.890;8.970;2022-07-09T09:34:12;5.88;;;2.30;;
18780;SDS011;9519;51.890;8.970;2022-07-09T09:39:16;4.63;;;2.13;;
18780;SDS011;9519;51.890;8.970;2022-07-09T09:44:22;6.00;;;2.45;;
18780;SDS011;9519;51.890;8.970;2022-07-09T09:49:26;4.55;;;1.80;;
18780;SDS011;9519;51.890;8.970;2022-07-09T09:54:30;7.30;;;2.17;;
18780;SDS011;9519;51.890;8.970;2022-07-09T09:59:36;5.00;;;1.88;;
18780;SDS011;9519;51.890;8.970;2022-07-09T10:04:40;4.57;;;1.70;;
18780;SDS011;9519;51.890;8.970;2022-07-09T10:09:51;6.35;;;2.45;;
18780;SDS011;9519;51.890;8.970;2022-07-09T10:14:55;4.03;;;1.83;;
18780;SDS011;9519;51.890;8.970;2022-07-09T10:20:03;5.78;;;2.63;;
18780;SDS011;9519;51.890;8.970;2022-07-09T10:25:21;7.22;;;2.03;;
18780;SDS011;9519;51.890;8.970;2022-07-09T10:30:31;6.72;;;2.10;;
18780;SDS011;9519;51.890;8.970;2022-07-09T10:35:39;4.85;;;1.50;;
18780;SDS011;9519;51.890;8.970;2022-07-09T10:40:43;3.38;;;1.52;;
18780;SDS011;9519;51.890;8.970;2022-07-09T10:45:48;3.38;;;1.48;;
18780;SDS011;9519;51.890;8.970;2022-07-09T10:50:50;5.75;;;1.35;;
18780;SDS011;9519;51.890;8.970;2022-07-09T10:55:52;4.72;;;1.10;;
18780;SDS011;9519;51.890;8.970;2022-07-09T11:00:58;7.10;;;1.20;;
18780;SDS011;9519;51.890;8.970;2022-07-09T11:06:04;3.55;;;1.08;;
18780;SDS011;9519;51.890;8.970;2022-07-09T11:11:10;2.95;;;0.80;;
18780;SDS011;9519;51.890;8.970;2022-07-09T11:16:13;3.58;;;1.30;;
18780;SDS011;9519;51.890;8.970;2022-07-09T11:21:23;5.57;;;1.02;;
18780;SDS011;9519;51.890;8.970;2022-07-09T11:26:27;2.03;;;0.93;;
18780;SDS011;9519;51.890;8.970;2022-07-09T11:31:31;2.40;;;1.00;;
18780;SDS011;9519;51.890;8.970;2022-07-09T11:36:36;2.63;;;1.10;;
18780;SDS011;9519;51.890;8.970;2022-07-09T11:41:41;2.28;;;1.08;;
18780;SDS011;9519;51.890;8.970;2022-07-09T11:46:46;6.63;;;1.20;;
18780;SDS011;9519;51.890;8.970;2022-07-09T11:52:16;4.30;;;1.25;;
18780;SDS011;9519;51.890;8.970;2022-07-09T11:57:20;3.28;;;1.23;;
18780;SDS011;9519;51.890;8.970;2022-07-09T12:02:29;4.65;;;1.02;;
18780;SDS011;9519;51.890;8.970;2022-07-09T12:07:32;4.35;;;0.90;;
18780;SDS011;9519;51.890;8.970;2022-07-09T12:12:35;3.25;;;1.00;;
18780;SDS011;9519;51.890;8.970;2022-07-09T12:17:40;2.72;;;1.10;;
18780;SDS011;9519;51.890;8.970;2022-07-09T12:22:42;4.55;;;1.25;;
18780;SDS011;9519;51.890;8.970;2022-07-09T12:27:44;3.20;;;1.10;;
18780;SDS011;9519;51.890;8.970;2022-07-09T12:32:48;3.83;;;0.90;;
18780;SDS011;9519;51.890;8.970;2022-07-09T12:37:51;5.28;;;1.30;;
18780;SDS011;9519;51.890;8.970;2022-07-09T12:42:53;2.58;;;0.98;;
18780;SDS011;9519;51.890;8.970;2022-07-09T12:47:56;3.97;;;1.42;;
18780;SDS011;9519;51.890;8.970;2022-07-09T12:52:58;4.05;;;1.58;;
18780;SDS011;9519;51.890;8.970;2022-07-09T12:58:01;4.15;;;1.80;;
18780;SDS011;9519;51.890;8.970;2022-07-09T13:03:04;3.33;;;1.42;;
18780;SDS011;9519;51.890;8.970;2022-07-09T13:08:06;2.85;;;1.40;;
18780;SDS011;9519;51.890;8.970;2022-07-09T13:13:08;2.92;;;1.50;;
18780;SDS011;9519;51.890;8.970;2022-07-09T13:18:12;3.65;;;1.50;;
18780;SDS011;9519;51.890;8.970;2022-07-09T13:23:15;2.85;;;1.50;;
18780;SDS011;9519;51.890;8.970;2022-07-09T13:28:17;4.18;;;1.67;;
18780;SDS011;9519;51.890;8.970;2022-07-09T13:33:21;3.40;;;1.60;;
18780;SDS011;9519;51.890;8.970;2022-07-09T13:38:23;3.95;;;1.50;;
18780;SDS011;9519;51.890;8.970;2022-07-09T13:43:26;3.92;;;1.67;;
18780;SDS011;9519;51.890;8.970;2022-07-09T13:48:29;3.05;;;1.17;;
18780;SDS011;9519;51.890;8.970;2022-07-09T13:53:31;3.40;;;1.30;;
18780;SDS011;9519;51.890;8.970;2022-07-09T13:58:34;2.65;;;1.13;;
18780;SDS011;9519;51.890;8.970;2022-07-09T14:03:37;3.83;;;1.20;;
18780;SDS011;9519;51.890;8.970;2022-07-09T14:08:39;1.38;;;0.70;;
18780;SDS011;9519;51.890;8.970;2022-07-09T14:13:42;3.20;;;0.90;;
18780;SDS011;9519;51.890;8.970;2022-07-09T14:18:46;3.63;;;0.80;;
18780;SDS011;9519;51.890;8.970;2022-07-09T14:23:48;3.05;;;0.90;;
18780;SDS011;9519;51.890;8.970;2022-07-09T14:28:50;2.70;;;1.08;;
18780;SDS011;9519;51.890;8.970;2022-07-09T14:33:54;4.70;;;1.02;;
18780;SDS011;9519;51.890;8.970;2022-07-09T14:38:57;7.90;;;1.23;;
18780;SDS011;9519;51.890;8.970;2022-07-09T14:43:59;5.13;;;1.00;;
18780;SDS011;9519;51.890;8.970;2022-07-09T14:49:02;3.13;;;0.90;;
18780;SDS011;9519;51.890;8.970;2022-07-09T14:54:05;2.88;;;0.90;;
18780;SDS011;9519;51.890;8.970;2022-07-09T14:59:07;3.50;;;1.10;;
18780;SDS011;9519;51.890;8.970;2022-07-09T15:04:12;2.70;;;1.05;;
18780;SDS011;9519;51.890;8.970;2022-07-09T15:09:15;6.85;;;1.00;;
18780;SDS011;9519;51.890;8.970;2022-07-09T15:14:17;3.47;;;1.02;;
18780;SDS011;9519;51.890;8.970;2022-07-09T15:19:21;2.33;;;1.00;;
18780;SDS011;9519;51.890;8.970;2022-07-09T15:24:23;1.60;;;0.90;;
18780;SDS011;9519;51.890;8.970;2022-07-09T15:29:25;2.08;;;0.70;;
18780;SDS011;9519;51.890;8.970;2022-07-09T15:34:28;3.33;;;0.93;;
18780;SDS011;9519;51.890;8.970;2022-07-09T15:39:31;4.63;;;1.08;;
18780;SDS011;9519;51.890;8.970;2022-07-09T15:44:33;4.93;;;1.25;;
18780;SDS011;9519;51.890;8.970;2022-07-09T15:49:36;4.30;;;0.98;;
18780;SDS011;9519;51.890;8.970;2022-07-09T15:54:38;5.30;;;1.33;;
18780;SDS011;9519;51.890;8.970;2022-07-09T15:59:40;4.15;;;1.10;;
18780;SDS011;9519;51.890;8.970;2022-07-09T16:04:44;2.75;;;1.00;;
18780;SDS011;9519;51.890;8.970;2022-07-09T16:09:46;5.15;;;1.20;;
18780;SDS011;9519;51.890;8.970;2022-07-09T16:14:48;4.65;;;0.80;;
18780;SDS011;9519;51.890;8.970;2022-07-09T16:19:52;5.32;;;1.45;;
18780;SDS011;9519;51.890;8.970;2022-07-09T16:24:54;7.05;;;1.38;;
18780;SDS011;9519;51.890;8.970;2022-07-09T16:29:56;3.60;;;1.10;;
18780;SDS011;9519;51.890;8.970;2022-07-09T16:34:59;4.10;;;1.10;;
18780;SDS011;9519;51.890;8.970;2022-07-09T16:40:02;8.95;;;1.25;;
18780;SDS011;9519;51.890;8.970;2022-07-09T16:45:06;6.90;;;1.27;;
18780;SDS011;9519;51.890;8.970;2022-07-09T16:50:10;6.28;;;1.40;;
18780;SDS011;9519;51.890;8.970;2022-07-09T16:55:13;8.65;;;1.58;;
18780;SDS011;9519;51.890;8.970;2022-07-09T17:00:15;7.38;;;1.60;;
18780;SDS011;9519;51.890;8.970;2022-07-09T17:05:19;5.90;;;1.65;;
18780;SDS011;9519;51.890;8.970;2022-07-09T17:10:21;8.38;;;1.63;;
18780;SDS011;9519;51.890;8.970;2022-07-09T17:15:23;7.35;;;1.40;;
18780;SDS011;9519;51.890;8.970;2022-07-09T17:20:29;5.75;;;1.60;;
18780;SDS011;9519;51.890;8.970;2022-07-09T17:25:32;5.15;;;1.33;;
18780;SDS011;9519;51.890;8.970;2022-07-09T17:30:34;5.80;;;1.27;;
18780;SDS011;9519;51.890;8.970;2022-07-09T17:35:38;6.40;;;1.20;;
18780;SDS011;9519;51.890;8.970;2022-07-09T17:40:40;4.35;;;1.10;;
18780;SDS011;9519;51.890;8.970;2022-07-09T17:45:43;6.15;;;1.13;;
18780;SDS011;9519;51.890;8.970;2022-07-09T17:50:48;7.00;;;1.42;;
18780;SDS011;9519;51.890;8.970;2022-07-09T17:55:50;7.07;;;1.05;;
18780;SDS011;9519;51.890;8.970;2022-07-09T18:00:52;5.43;;;1.40;;
18780;SDS011;9519;51.890;8.970;2022-07-09T18:05:56;9.35;;;1.40;;
18780;SDS011;9519;51.890;8.970;2022-07-09T18:10:58;5.30;;;1.58;;
18780;SDS011;9519;51.890;8.970;2022-07-09T18:16:00;8.05;;;1.20;;
18780;SDS011;9519;51.890;8.970;2022-07-09T18:21:05;3.83;;;1.17;;
18780;SDS011;9519;51.890;8.970;2022-07-09T18:26:08;7.05;;;1.25;;
18780;SDS011;9519;51.890;8.970;2022-07-09T18:31:10;4.00;;;1.20;;
18780;SDS011;9519;51.890;8.970;2022-07-09T18:36:14;5.80;;;1.10;;
18780;SDS011;9519;51.890;8.970;2022-07-09T18:41:16;9.43;;;1.13;;
18780;SDS011;9519;51.890;8.970;2022-07-09T18:46:18;3.70;;;1.50;;
18780;SDS011;9519;51.890;8.970;2022-07-09T18:51:22;3.85;;;1.10;;
18780;SDS011;9519;51.890;8.970;2022-07-09T18:56:24;6.13;;;1.40;;
18780;SDS011;9519;51.890;8.970;2022-07-09T19:01:26;8.98;;;1.40;;
18780;SDS011;9519;51.890;8.970;2022-07-09T19:06:29;6.03;;;1.25;;
18780;SDS011;9519;51.890;8.970;2022-07-09T19:11:31;4.80;;;1.05;;
18780;SDS011;9519;51.890;8.970;2022-07-09T19:16:35;5.60;;;1.00;;
18780;SDS011;9519;51.890;8.970;2022-07-09T19:21:40;2.72;;;0.75;;
18780;SDS011;9519;51.890;8.970;2022-07-09T19:26:43;4.85;;;1.00;;
18780;SDS011;9519;51.890;8.970;2022-07-09T19:31:45;6.05;;;1.25;;
18780;SDS011;9519;51.890;8.970;2022-07-09T19:37:06;4.70;;;1.08;;
18780;SDS011;9519;51.890;8.970;2022-07-09T19:42:08;4.53;;;1.20;;
18780;SDS011;9519;51.890;8.970;2022-07-09T19:47:10;5.35;;;1.17;;
18780;SDS011;9519;51.890;8.970;2022-07-09T19:52:13;4.85;;;1.17;;
18780;SDS011;9519;51.890;8.970;2022-07-09T19:57:15;4.70;;;1.27;;
18780;SDS011;9519;51.890;8.970;2022-07-09T20:02:18;4.93;;;1.10;;
18780;SDS011;9519;51.890;8.970;2022-07-09T20:07:21;4.93;;;0.90;;
18780;SDS011;9519;51.890;8.970;2022-07-09T20:12:23;4.18;;;1.10;;
18780;SDS011;9519;51.890;8.970;2022-07-09T20:17:25;8.90;;;0.93;;
18780;SDS011;9519;51.890;8.970;2022-07-09T20:22:29;4.65;;;1.00;;
18780;SDS011;9519;51.890;8.970;2022-07-09T20:27:31;6.80;;;1.30;;
18780;SDS011;9519;51.890;8.970;2022-07-09T20:32:33;5.27;;;1.00;;
18780;SDS011;9519;51.890;8.970;2022-07-09T20:37:37;7.20;;;1.20;;
18780;SDS011;9519;51.890;8.970;2022-07-09T20:42:39;8.20;;;2.10;;
18780;SDS011;9519;51.890;8.970;2022-07-09T20:47:41;8.33;;;1.40;;
18780;SDS011;9519;51.890;8.970;2022-07-09T20:52:44;8.07;;;1.40;;
18780;SDS011;9519;51.890;8.970;2022-07-09T20:57:47;4.10;;;1.30;;
18780;SDS011;9519;51.890;8.970;2022-07-09T21:02:49;8.53;;;1.27;;
18780;SDS011;9519;51.890;8.970;2022-07-09T21:07:52;7.50;;;1.30;;
18780;SDS011;9519;51.890;8.970;2022-07-09T21:12:54;7.00;;;1.70;;
18780;SDS011;9519;51.890;8.970;2022-07-09T21:17:56;9.57;;;1.40;;
18780;SDS011;9519;51.890;8.970;2022-07-09T21:23:17;8.37;;;1.30;;
18780;SDS011;9519;51.890;8.970;2022-07-09T21:28:19;6.10;;;1.37;;
18780;SDS011;9519;51.890;8.970;2022-07-09T21:33:21;6.53;;;1.30;;
18780;SDS011;9519;51.890;8.970;2022-07-09T21:38:25;7.20;;;1.37;;
18780;SDS011;9519;51.890;8.970;2022-07-09T21:43:27;8.57;;;1.50;;
18780;SDS011;9519;51.890;8.970;2022-07-09T21:48:29;7.63;;;1.20;;
18780;SDS011;9519;51.890;8.970;2022-07-09T21:53:33;5.47;;;1.27;;
18780;SDS011;9519;51.890;8.970;2022-07-09T21:58:35;5.33;;;1.27;;
18780;SDS011;9519;51.890;8.970;2022-07-09T22:03:37;6.87;;;1.43;;
18780;SDS011;9519;51.890;8.970;2022-07-09T22:08:41;6.67;;;1.70;;
18780;SDS011;9519;51.890;8.970;2022-07-09T22:13:44;5.03;;;1.40;;
18780;SDS011;9519;51.890;8.970;2022-07-09T22:18:46;4.80;;;1.10;;
18780;SDS011;9519;51.890;8.970;2022-07-09T22:23:50;6.97;;;1.30;;
18780;SDS011;9519;51.890;8.970;2022-07-09T22:28:55;7.47;;;1.60;;
18780;SDS011;9519;51.890;8.970;2022-07-09T22:33:57;5.90;;;1.00;;
18780;SDS011;9519;51.890;8.970;2022-07-09T22:39:01;6.53;;;1.80;;
18780;SDS011;9519;51.890;8.970;2022-07-09T22:44:04;8.17;;;1.30;;
18780;SDS011;9519;51.890;8.970;2022-07-09T22:49:06;6.10;;;1.17;;
18780;SDS011;9519;51.890;8.970;2022-07-09T22:54:10;4.60;;;1.03;;
18780;SDS011;9519;51.890;8.970;2022-07-09T22:59:12;5.00;;;1.37;;
18780;SDS011;9519;51.890;8.970;2022-07-09T23:04:14;6.13;;;1.50;;
18780;SDS011;9519;51.890;8.970;2022-07-09T23:09:18;6.53;;;1.43;;
18780;SDS011;9519;51.890;8.970;2022-07-09T23:14:20;6.47;;;1.27;;
18780;SDS011;9519;51.890;8.970;2022-07-09T23:19:23;7.10;;;1.20;;
18780;SDS011;9519;51.890;8.970;2022-07-09T23:24:26;6.33;;;1.60;;
18780;SDS011;9519;51.890;8.970;2022-07-09T23:29:28;6.57;;;1.10;;
18780;SDS011;9519;51.890;8.970;2022-07-09T23:34:30;7.13;;;1.60;;
18780;SDS011;9519;51.890;8.970;2022-07-09T23:39:34;6.87;;;1.30;;
18780;SDS011;9519;51.890;8.970;2022-07-09T23:44:36;5.00;;;1.40;;
18780;SDS011;9519;51.890;8.970;2022-07-09T23:49:38;9.10;;;1.40;;
18780;SDS011;9519;51.890;8.970;2022-07-09T23:54:41;7.00;;;1.53;;
18780;SDS011;9519;51.890;8.970;2022-07-09T23:59:43;8.03;;;1.47;;
